Historique des stations

Station météo de Bellegarde

Altitude de la station : 121 m







Données météorologiques pour le 26/05/2022
Date
Heure
Températures Humidité Point de rosée Vitesse
du vent
Direction Rafales Windchill Pression Pluviométrie
Cumul
Date
Heure
Températures Humidité Point de rosée Vitesse
du vent
Direction Rafales Windchill Pression Pluviométrie
Cumul
26/05/2022 14:0121.3 °C56 %12.2 °C6 km/hNNE18 km/h21.31026 hPa0.0 mm
26/05/2022 13:5621.8 °C58 %13.1 °C2 km/hONO18 km/h21.81026 hPa0.0 mm
26/05/2022 13:4619.8 °C62 %12.3 °C8 km/hNNO15 km/h19.81026 hPa0.0 mm
26/05/2022 13:4119.8 °C64 %12.8 °C13 km/hO13 km/h19.81026 hPa0.0 mm
26/05/2022 13:3119.6 °C66 %13.1 °C5 km/hNO13 km/h19.61026 hPa0.0 mm
26/05/2022 13:2619.4 °C63 %12.2 °C5 km/hONO15 km/h19.41026 hPa0.0 mm
26/05/2022 13:1619.8 °C62 %12.3 °C5 km/hOSO8 km/h19.81026 hPa0.0 mm
26/05/2022 13:1119.9 °C61 %12.2 °C3 km/hOSO15 km/h19.91026 hPa0.0 mm
26/05/2022 13:0119.0 °C65 %12.3 °C6 km/hONO11 km/h19.01026 hPa0.0 mm
26/05/2022 12:5618.8 °C65 %12.1 °C2 km/hONO13 km/h18.81026 hPa0.0 mm
26/05/2022 12:4618.9 °C66 %12.4 °C6 km/hNNO18 km/h18.91026 hPa0.0 mm
26/05/2022 12:4118.8 °C65 %12.1 °C8 km/hNW15 km/h18.81026 hPa0.0 mm
26/05/2022 12:3118.8 °C66 %12.3 °C8 km/hNO16 km/h18.81026 hPa0.0 mm
26/05/2022 12:2618.9 °C66 %12.4 °C5 km/hNNO16 km/h18.91026 hPa0.0 mm
26/05/2022 12:1619.9 °C63 %12.6 °C6 km/hOSO15 km/h19.91026 hPa0.0 mm
26/05/2022 12:1119.7 °C64 %12.7 °C3 km/hONO15 km/h19.71026 hPa0.0 mm
26/05/2022 12:0118.6 °C68 %12.6 °C5 km/hNO13 km/h18.61026 hPa0.0 mm
26/05/2022 11:5618.3 °C68 %12.3 °C3 km/hONO15 km/h18.31026 hPa0.0 mm
26/05/2022 11:4618.2 °C71 %12.9 °C5 km/hNO10 km/h18.21026 hPa0.0 mm
26/05/2022 11:4118.3 °C67 %12.1 °C5 km/hN13 km/h18.31026 hPa0.0 mm
26/05/2022 11:3118.2 °C68 %12.2 °C3 km/hNO8 km/h18.21026 hPa0.0 mm
26/05/2022 11:2617.8 °C71 %12.5 °C5 km/hN21 km/h17.81026 hPa0.0 mm
26/05/2022 11:1617.9 °C71 %12.6 °C8 km/hNO21 km/h17.91026 hPa0.0 mm
26/05/2022 11:1117.2 °C73 %12.3 °C5 km/hNE19 km/h17.21026 hPa0.0 mm
26/05/2022 11:0116.8 °C77 %12.8 °C8 km/hNO18 km/h16.81026 hPa0.0 mm
26/05/2022 10:5616.6 °C75 %12.2 °C6 km/hNNO18 km/h16.61026 hPa0.0 mm
26/05/2022 10:4616.5 °C76 %12.3 °C10 km/hNNE16 km/h16.41026 hPa0.0 mm
26/05/2022 10:4116.6 °C75 %12.1 °C13 km/hN18 km/h16.61026 hPa0.0 mm
26/05/2022 10:3116.7 °C73 %11.9 °C13 km/hN23 km/h16.11026 hPa0.0 mm
26/05/2022 10:2617.1 °C71 %11.8 °C11 km/hNE23 km/h17.11026 hPa0.0 mm
26/05/2022 10:1618.2 °C67 %12.0 °C6 km/hONO19 km/h18.21025 hPa0.0 mm
26/05/2022 10:1118.6 °C67 %12.3 °C6 km/hNNO11 km/h18.61025 hPa0.0 mm
26/05/2022 10:0117.8 °C68 %11.8 °C5 km/hNNO11 km/h17.81025 hPa0.0 mm
26/05/2022 09:5617.7 °C73 %12.8 °C3 km/hONO13 km/h17.71025 hPa0.0 mm
26/05/2022 09:4617.0 °C72 %11.9 °C6 km/hONO16 km/h17.01025 hPa0.0 mm
26/05/2022 09:4117.2 °C72 %12.1 °C16 km/hO16 km/h17.21025 hPa0.0 mm
26/05/2022 09:3117.3 °C73 %12.4 °C5 km/hNO15 km/h17.31025 hPa0.0 mm
26/05/2022 09:2616.7 °C74 %12.1 °C5 km/hN15 km/h16.71025 hPa0.0 mm
26/05/2022 09:1616.9 °C73 %12.0 °C6 km/hONO15 km/h16.91025 hPa0.0 mm
26/05/2022 09:1116.9 °C72 %11.8 °C5 km/hNW19 km/h16.91025 hPa0.0 mm
26/05/2022 09:0116.8 °C77 %12.8 °C10 km/hNNO16 km/h16.81025 hPa0.0 mm
26/05/2022 08:5616.3 °C76 %12.0 °C13 km/hONO16 km/h16.31025 hPa0.0 mm
26/05/2022 08:4616.0 °C78 %12.2 °C10 km/hN16 km/h15.91025 hPa0.0 mm
26/05/2022 08:4115.9 °C79 %12.2 °C5 km/hNNO16 km/h15.71025 hPa0.0 mm
26/05/2022 08:3115.4 °C82 %12.3 °C5 km/hNO11 km/h15.41025 hPa0.0 mm
26/05/2022 08:2615.2 °C82 %12.2 °C5 km/hNW11 km/h15.21025 hPa0.0 mm
26/05/2022 08:1615.1 °C83 %12.2 °C6 km/hNO13 km/h15.11025 hPa0.0 mm
26/05/2022 08:1114.9 °C83 %12.1 °C5 km/hNNO11 km/h14.91025 hPa0.0 mm
26/05/2022 08:0114.7 °C84 %12.0 °C5 km/hO11 km/h14.71025 hPa0.0 mm
26/05/2022 07:5614.7 °C84 %12.0 °C3 km/hONO11 km/h14.71024 hPa0.0 mm
26/05/2022 07:4614.6 °C85 %12.1 °C5 km/hNO10 km/h14.61024 hPa0.0 mm
26/05/2022 07:4114.5 °C85 %12.0 °C5 km/hNW10 km/h14.51024 hPa0.0 mm
26/05/2022 07:3114.4 °C85 %11.9 °C3 km/hONO10 km/h14.41024 hPa0.0 mm
26/05/2022 07:2614.3 °C85 %11.8 °C6 km/hOSO6 km/h14.31024 hPa0.0 mm
26/05/2022 07:1614.2 °C86 %11.9 °C3 km/hSO5 km/h14.21024 hPa0.0 mm
26/05/2022 07:1114.2 °C86 %11.9 °C3 km/hO8 km/h14.21024 hPa0.0 mm
26/05/2022 07:0114.1 °C86 %11.7 °C3 km/hO5 km/h14.11024 hPa0.0 mm
26/05/2022 06:5614.0 °C85 %11.5 °C3 km/hONO6 km/h14.01024 hPa0.0 mm
26/05/2022 06:4614.0 °C86 %11.7 °C3 km/hNO5 km/h14.01024 hPa0.0 mm
26/05/2022 06:4113.9 °C86 %11.6 °C3 km/hONO5 km/h13.91024 hPa0.0 mm
26/05/2022 06:3113.8 °C86 %11.5 °C3 km/hOSO8 km/h13.81024 hPa0.0 mm
26/05/2022 06:2613.8 °C86 %11.5 °C2 km/hO8 km/h13.81024 hPa0.0 mm
26/05/2022 06:1613.9 °C85 %11.4 °C3 km/hO10 km/h13.91024 hPa0.0 mm
26/05/2022 06:1113.9 °C85 %11.4 °C6 km/hOSO10 km/h13.91024 hPa0.0 mm
26/05/2022 06:0114.0 °C85 %11.5 °C3 km/hNO11 km/h14.01023 hPa0.0 mm
26/05/2022 05:5614.0 °C85 %11.5 °C3 km/hONO11 km/h14.01023 hPa0.0 mm
26/05/2022 05:4614.1 °C84 %11.4 °C3 km/hONO6 km/h14.11023 hPa0.0 mm
26/05/2022 05:4114.1 °C84 %11.4 °C2 km/hONO6 km/h14.11023 hPa0.0 mm
26/05/2022 05:3114.2 °C84 %11.5 °C3 km/hO6 km/h14.21023 hPa0.0 mm
26/05/2022 05:2614.2 °C84 %11.5 °C2 km/hO6 km/h14.21023 hPa0.0 mm
26/05/2022 05:1614.2 °C84 %11.6 °C3 km/hO6 km/h14.21023 hPa0.0 mm
26/05/2022 05:1114.3 °C84 %11.6 °C5 km/hONO8 km/h14.31023 hPa0.0 mm
26/05/2022 05:0114.4 °C84 %11.7 °C3 km/hO6 km/h14.41023 hPa0.0 mm
26/05/2022 04:5614.4 °C85 %12.0 °C2 km/hONO6 km/h14.41023 hPa0.0 mm
26/05/2022 04:4614.4 °C84 %11.8 °C3 km/hOSO6 km/h14.41023 hPa0.0 mm
26/05/2022 04:4114.5 °C84 %11.8 °C3 km/hO6 km/h14.51023 hPa0.0 mm
26/05/2022 04:3114.5 °C84 %11.8 °C3 km/hOSO6 km/h14.51023 hPa0.0 mm
26/05/2022 04:2614.5 °C83 %11.6 °C3 km/hSO8 km/h14.51023 hPa0.0 mm
26/05/2022 04:1614.4 °C83 %11.6 °C3 km/hO6 km/h14.41023 hPa0.0 mm
26/05/2022 04:1114.4 °C83 %11.5 °C2 km/hO6 km/h14.41023 hPa0.0 mm
26/05/2022 04:0114.4 °C84 %11.7 °C3 km/hOSO6 km/h14.41023 hPa0.0 mm
26/05/2022 03:5614.4 °C83 %11.6 °C5 km/hNW6 km/h14.41023 hPa0.0 mm
26/05/2022 03:4614.7 °C83 %11.8 °C5 km/hNO10 km/h14.71023 hPa0.0 mm
26/05/2022 03:4114.8 °C83 %12.0 °C5 km/hONO13 km/h14.81023 hPa0.0 mm
26/05/2022 03:3115.2 °C81 %12.0 °C11 km/hNO19 km/h14.71023 hPa0.0 mm
26/05/2022 03:2615.3 °C80 %11.9 °C16 km/hONO18 km/h15.31023 hPa0.0 mm
26/05/2022 03:1615.4 °C79 %11.8 °C5 km/hNNO11 km/h15.41023 hPa0.0 mm
26/05/2022 03:1115.4 °C78 %11.6 °C3 km/hNW13 km/h15.41023 hPa0.0 mm
26/05/2022 03:0115.5 °C78 %11.7 °C8 km/hONO18 km/h15.51023 hPa0.0 mm
26/05/2022 02:5615.6 °C78 %11.8 °C3 km/hNW21 km/h15.41023 hPa0.0 mm
26/05/2022 02:4615.8 °C77 %11.8 °C8 km/hNO18 km/h15.81023 hPa0.0 mm
26/05/2022 02:4115.8 °C76 %11.6 °C6 km/hNW18 km/h15.81023 hPa0.0 mm
26/05/2022 02:3115.9 °C75 %11.5 °C5 km/hONO11 km/h15.91023 hPa0.0 mm
26/05/2022 02:2616.0 °C75 %11.6 °C6 km/hONO13 km/h16.01023 hPa0.0 mm
26/05/2022 02:1616.0 °C74 %11.4 °C6 km/hNNO15 km/h16.01023 hPa0.0 mm
26/05/2022 02:1116.1 °C74 %11.4 °C13 km/hONO16 km/h16.11023 hPa0.0 mm
26/05/2022 02:0116.1 °C74 %11.4 °C6 km/h--16.11023 hPa0.0 mm
26/05/2022 01:5616.1 °C73 %11.3 °C6 km/hNW15 km/h16.11023 hPa0.0 mm
26/05/2022 01:4616.1 °C72 %11.1 °C5 km/hNO13 km/h16.11023 hPa0.0 mm
26/05/2022 01:4116.2 °C72 %11.1 °C3 km/hO13 km/h16.21023 hPa0.0 mm
26/05/2022 01:3116.2 °C72 %11.1 °C5 km/hONO8 km/h16.21023 hPa0.0 mm
26/05/2022 01:2616.1 °C72 %11.1 °C3 km/hO13 km/h16.11023 hPa0.0 mm
26/05/2022 01:1616.1 °C72 %11.0 °C5 km/hO10 km/h16.11023 hPa0.0 mm
26/05/2022 01:1116.0 °C72 %11.0 °C10 km/hO13 km/h16.01023 hPa0.0 mm
26/05/2022 01:0115.8 °C72 %10.8 °C6 km/hNO15 km/h15.81023 hPa0.0 mm
26/05/2022 00:5615.8 °C72 %10.7 °C6 km/hONO15 km/h15.81023 hPa0.0 mm
26/05/2022 00:4615.6 °C72 %10.6 °C5 km/hOSO13 km/h15.61023 hPa0.0 mm
26/05/2022 00:4115.7 °C71 %10.4 °C3 km/hONO19 km/h15.71023 hPa0.0 mm
26/05/2022 00:3115.8 °C70 %10.4 °C5 km/hONO11 km/h15.81023 hPa0.0 mm
26/05/2022 00:2615.9 °C70 %10.4 °C5 km/hNW11 km/h15.91023 hPa0.0 mm
26/05/2022 00:1616.1 °C68 %10.1 °C5 km/hNO10 km/h16.11023 hPa0.0 mm
26/05/2022 00:1116.1 °C68 %10.2 °C6 km/hONO10 km/h16.11023 hPa0.0 mm
26/05/2022 00:0116.3 °C67 %10.1 °C3 km/hONO10 km/h16.31022 hPa0.0 mm


Minima :

Température : 13.8 °C
Humidité : 56 %
Point de rosée : 10.1 °C
Vent moyen : 2 km/h
Windchill : 13.8
Pression atm. : 1022 hPa
Maxima :

Température : 21.8 °C
Humidité : 86 %
Point de rosée : 13.1 °C
Vent moyen : 16 km/h
Windchill : 21.8
Pression atm. : 1026 hPa
Rafales max : 23 km/h
Cumul de pluie sur 24H : 0 mm

Bellegarde est une commune du département Loiret (45).
La station météorologique du réseau de l'association la plus proche de Bellegarde est celle de Saint-Firmin-des-Bois
Site du propriétaire de la station : meteo-grognon.com



Icône Facebook Association Météo Centre Icône Twitter Association Météo Centre Icône Chaîne Youtube Association Météo Centre Icône contact Association Météo Centre Icône Insta Association Météo Centre